createdAt,value
2022-11-24T00:00:49.232Z,3.67
2022-11-24T00:03:16.590Z,3.20
2022-11-24T00:05:43.847Z,3.20
2022-11-24T00:08:11.184Z,3.77
2022-11-24T00:10:38.291Z,3.97
2022-11-24T00:13:05.387Z,3.10
2022-11-24T00:15:32.528Z,3.33
2022-11-24T00:17:59.640Z,3.37
2022-11-24T00:20:27.192Z,3.10
2022-11-24T00:22:54.389Z,3.30
2022-11-24T00:25:21.491Z,3.63
2022-11-24T00:27:48.715Z,3.80
2022-11-24T00:30:15.928Z,3.43
2022-11-24T00:32:42.998Z,3.83
2022-11-24T00:35:10.304Z,4.20
2022-11-24T00:37:37.382Z,3.00
2022-11-24T00:40:04.675Z,4.30
2022-11-24T00:42:31.751Z,3.40
2022-11-24T00:44:58.901Z,3.17
2022-11-24T00:47:26.097Z,3.20
2022-11-24T00:49:53.304Z,3.40
2022-11-24T00:52:20.677Z,3.23
2022-11-24T00:54:47.813Z,3.20
2022-11-24T00:57:14.974Z,4.80
2022-11-24T00:59:42.076Z,3.73
2022-11-24T01:02:09.294Z,3.17
2022-11-24T01:04:36.611Z,3.53
2022-11-24T01:07:03.828Z,3.63
2022-11-24T01:09:30.928Z,3.33
2022-11-24T01:12:01.285Z,3.03
2022-11-24T01:14:28.657Z,3.40
2022-11-24T01:16:56.240Z,3.50
2022-11-24T01:19:23.631Z,3.57
2022-11-24T01:21:50.899Z,3.83
2022-11-24T01:24:18.063Z,3.73
2022-11-24T01:26:45.160Z,2.83
2022-11-24T01:29:13.690Z,3.23
2022-11-24T01:31:40.977Z,3.10
2022-11-24T01:34:08.341Z,3.30
2022-11-24T01:36:35.599Z,3.10
2022-11-24T01:39:02.770Z,3.80
2022-11-24T01:41:29.908Z,3.70
2022-11-24T01:43:57.253Z,2.93
2022-11-24T01:46:33.534Z,3.17
2022-11-24T01:49:03.839Z,2.80
2022-11-24T01:51:31.608Z,3.30
2022-11-24T01:54:00.153Z,3.40
2022-11-24T01:56:27.535Z,3.13
2022-11-24T01:58:55.531Z,3.40
2022-11-24T02:01:22.707Z,2.70
2022-11-24T02:03:49.859Z,2.90
2022-11-24T02:06:18.603Z,3.13
2022-11-24T02:08:47.560Z,2.30
2022-11-24T02:11:14.802Z,2.73
2022-11-24T02:13:41.955Z,3.37
2022-11-24T02:16:09.512Z,2.43
2022-11-24T02:18:37.596Z,3.03
2022-11-24T02:21:04.727Z,3.33
2022-11-24T02:23:33.887Z,2.73
2022-11-24T02:26:13.307Z,3.00
2022-11-24T02:28:40.432Z,2.77
2022-11-24T02:31:07.607Z,2.70
2022-11-24T02:33:34.978Z,3.70
2022-11-24T02:36:02.172Z,2.50
2022-11-24T02:38:33.079Z,2.87
2022-11-24T02:41:01.246Z,3.57
2022-11-24T02:43:28.343Z,3.10
2022-11-24T02:45:55.527Z,2.97
2022-11-24T02:48:22.900Z,2.37
2022-11-24T02:50:50.260Z,2.63
2022-11-24T02:53:17.377Z,3.20
2022-11-24T02:55:44.455Z,2.67
2022-11-24T02:58:12.325Z,3.00
2022-11-24T03:00:39.434Z,2.60
2022-11-24T03:03:06.827Z,2.47
2022-11-24T03:05:33.992Z,2.10
2022-11-24T03:08:01.184Z,2.60
2022-11-24T03:10:29.215Z,2.40
2022-11-24T03:12:56.412Z,2.00
2022-11-24T03:15:23.921Z,2.27
2022-11-24T03:17:51.445Z,2.23
2022-11-24T03:20:18.845Z,1.63
2022-11-24T03:22:45.927Z,1.77
2022-11-24T03:25:13.045Z,1.60
2022-11-24T03:27:40.429Z,2.53
2022-11-24T03:30:08.110Z,2.37
2022-11-24T03:32:35.228Z,2.10
2022-11-24T03:35:02.375Z,1.80
2022-11-24T03:37:29.485Z,2.27
2022-11-24T03:39:56.608Z,2.00
2022-11-24T03:42:23.687Z,2.10
2022-11-24T03:44:50.797Z,2.40
2022-11-24T03:47:17.876Z,2.37
2022-11-24T03:49:45.847Z,2.07
2022-11-24T03:52:12.983Z,2.03
2022-11-24T03:54:40.132Z,1.97
2022-11-24T03:57:07.224Z,1.80
2022-11-24T03:59:34.349Z,2.00
2022-11-24T04:02:01.582Z,1.90
2022-11-24T04:04:28.744Z,2.20
2022-11-24T04:06:55.972Z,1.20
2022-11-24T04:09:23.126Z,1.60
2022-11-24T04:12:09.208Z,1.67
2022-11-24T04:14:36.676Z,1.47
2022-11-24T04:17:04.355Z,1.37
2022-11-24T04:19:31.704Z,1.47
2022-11-24T04:21:58.815Z,1.70
2022-11-24T04:24:25.974Z,1.10
2022-11-24T04:26:53.138Z,1.00
2022-11-24T04:29:20.225Z,1.70
2022-11-24T04:31:47.441Z,1.23
2022-11-24T04:34:14.555Z,1.60
2022-11-24T04:36:41.657Z,1.67
2022-11-24T04:39:24.198Z,1.40
2022-11-24T04:41:53.321Z,1.27
2022-11-24T04:44:20.450Z,1.50
2022-11-24T04:46:47.775Z,1.10
2022-11-24T04:49:15.035Z,1.30
2022-11-24T04:51:42.156Z,1.57
2022-11-24T04:54:10.639Z,1.63
2022-11-24T04:56:37.732Z,1.60
2022-11-24T04:59:08.446Z,1.53
2022-11-24T05:01:35.979Z,1.37
2022-11-24T05:04:03.212Z,1.43
2022-11-24T05:06:30.483Z,1.63
2022-11-24T05:08:57.603Z,2.20
2022-11-24T05:11:24.777Z,1.33
2022-11-24T05:13:53.409Z,1.73
2022-11-24T05:16:20.631Z,2.17
2022-11-24T05:18:47.807Z,1.80
2022-11-24T05:21:14.931Z,2.20
2022-11-24T05:23:42.076Z,1.93
2022-11-24T05:26:09.427Z,2.13
2022-11-24T05:28:36.572Z,2.47
2022-11-24T05:31:04.050Z,1.73
2022-11-24T05:33:33.251Z,3.27
2022-11-24T05:36:03.849Z,2.10
2022-11-24T05:38:31.073Z,2.03
2022-11-24T05:41:04.863Z,2.07
2022-11-24T05:43:32.251Z,2.33
2022-11-24T05:46:00.409Z,1.90
2022-11-24T05:48:27.537Z,1.97
2022-11-24T05:50:57.816Z,2.30
2022-11-24T05:53:26.302Z,2.13
2022-11-24T05:55:53.555Z,2.13
2022-11-24T05:58:20.813Z,1.80
2022-11-24T06:00:47.954Z,2.70
2022-11-24T06:03:15.209Z,1.50
2022-11-24T06:05:45.480Z,2.30
2022-11-24T06:08:12.609Z,2.13
2022-11-24T06:10:39.827Z,1.80
2022-11-24T06:13:07.774Z,1.73
2022-11-24T06:15:36.858Z,2.53
2022-11-24T06:18:04.042Z,2.03
2022-11-24T06:20:32.823Z,2.67
2022-11-24T06:23:00.403Z,1.83
2022-11-24T06:25:27.675Z,2.70
2022-11-24T06:27:55.045Z,1.60
2022-11-24T06:30:22.143Z,2.43
2022-11-24T06:32:50.142Z,2.33
2022-11-24T06:35:17.384Z,2.10
2022-11-24T06:37:45.867Z,2.67
2022-11-24T06:40:13.300Z,2.10
2022-11-24T06:42:40.494Z,2.63
2022-11-24T06:45:09.524Z,2.57
2022-11-24T06:47:37.076Z,2.67
2022-11-24T06:50:04.798Z,2.20
2022-11-24T06:52:31.945Z,2.77
2022-11-24T06:54:59.410Z,2.60
2022-11-24T06:57:27.629Z,2.93
2022-11-24T06:59:54.805Z,2.50
2022-11-24T07:02:21.947Z,2.70
2022-11-24T07:04:49.052Z,3.40
2022-11-24T07:07:16.264Z,3.23
2022-11-24T07:09:43.470Z,2.90
2022-11-24T07:12:10.558Z,3.27
2022-11-24T07:14:37.831Z,2.63
2022-11-24T07:17:05.279Z,2.70
2022-11-24T07:19:32.587Z,3.20
2022-11-24T07:21:59.919Z,2.80
2022-11-24T07:24:27.010Z,3.00
2022-11-24T07:26:54.106Z,3.40
2022-11-24T07:29:21.240Z,3.23
2022-11-24T07:31:48.413Z,3.50
2022-11-24T07:34:15.671Z,3.13
2022-11-24T07:36:45.030Z,2.70
2022-11-24T07:39:12.217Z,2.67
2022-11-24T07:41:39.367Z,2.27
2022-11-24T07:44:06.514Z,2.00
2022-11-24T07:46:33.819Z,2.97
2022-11-24T07:49:01.043Z,3.40
2022-11-24T07:51:28.135Z,10.17
2022-11-24T07:53:55.384Z,8.70
2022-11-24T07:56:22.725Z,6.23
2022-11-24T07:58:52.844Z,9.37
2022-11-24T08:01:20.555Z,6.53
2022-11-24T08:03:48.193Z,4.03
2022-11-24T08:06:25.015Z,10.47
2022-11-24T08:08:53.569Z,11.07
2022-11-24T08:11:20.826Z,3.87
2022-11-24T08:13:48.012Z,15.00
2022-11-24T08:16:16.124Z,4.17
2022-11-24T08:18:43.352Z,20.70
2022-11-24T08:21:13.860Z,17.77
2022-11-24T08:23:41.102Z,7.13
2022-11-24T08:26:09.345Z,6.63
2022-11-24T08:28:36.686Z,4.97
2022-11-24T08:31:08.272Z,7.60
2022-11-24T08:33:35.422Z,7.27
2022-11-24T08:36:09.633Z,5.70
2022-11-24T08:38:36.852Z,13.33
2022-11-24T08:41:04.617Z,5.70
2022-11-24T08:43:31.775Z,5.20
2022-11-24T08:46:04.747Z,41.43
2022-11-24T08:48:31.849Z,17.60
2022-11-24T08:50:59.237Z,21.47
2022-11-24T08:53:26.440Z,10.30
2022-11-24T08:55:53.628Z,15.57
2022-11-24T08:58:20.756Z,19.20
2022-11-24T09:00:47.902Z,9.27
2022-11-24T09:03:14.999Z,9.20
2022-11-24T09:05:57.515Z,10.37
2022-11-24T09:08:24.764Z,15.23
2022-11-24T09:10:52.035Z,5.00
2022-11-24T09:13:19.343Z,5.57
2022-11-24T09:15:46.505Z,2.30
2022-11-24T09:18:13.605Z,2.80
2022-11-24T09:20:40.864Z,5.00
2022-11-24T09:23:07.979Z,2.80
2022-11-24T09:25:35.149Z,3.43
2022-11-24T09:28:02.530Z,2.67
2022-11-24T09:30:29.717Z,1.97
2022-11-24T09:32:57.217Z,1.50
2022-11-24T09:35:24.862Z,1.70
2022-11-24T09:37:52.019Z,1.20
2022-11-24T09:40:19.261Z,2.00
2022-11-24T09:42:53.425Z,2.63
2022-11-24T09:45:57.540Z,1.43
2022-11-24T09:48:27.628Z,1.53
2022-11-24T09:50:54.764Z,1.87
2022-11-24T09:53:27.948Z,2.00
2022-11-24T09:55:56.225Z,1.40
2022-11-24T09:58:29.472Z,2.17
2022-11-24T10:00:56.740Z,2.63
2022-11-24T10:03:28.551Z,2.30
2022-11-24T10:05:55.868Z,1.70
2022-11-24T10:08:35.567Z,1.47
2022-11-24T10:11:03.488Z,1.43
2022-11-24T10:13:34.582Z,1.40
2022-11-24T10:16:07.730Z,1.13
2022-11-24T10:18:50.154Z,1.13
2022-11-24T10:21:26.254Z,1.07
2022-11-24T10:24:02.249Z,1.17
2022-11-24T10:26:43.678Z,0.67
2022-11-24T10:29:31.048Z,1.00
2022-11-24T10:31:58.179Z,0.83
2022-11-24T10:34:30.979Z,1.03
2022-11-24T10:37:01.144Z,0.70
2022-11-24T10:39:28.215Z,1.20
2022-11-24T10:42:00.068Z,0.87
2022-11-24T10:44:27.185Z,0.93
2022-11-24T10:46:54.354Z,1.17
2022-11-24T10:49:23.762Z,0.93
2022-11-24T10:51:58.072Z,0.80
2022-11-24T10:54:25.218Z,1.10
2022-11-24T10:56:52.678Z,0.73
2022-11-24T10:59:22.537Z,1.17
2022-11-24T11:01:49.793Z,1.00
2022-11-24T11:04:19.280Z,0.63
2022-11-24T11:06:46.388Z,0.70
2022-11-24T11:09:20.647Z,1.70
2022-11-24T11:11:48.867Z,1.50
2022-11-24T11:14:32.254Z,0.80
2022-11-24T11:16:59.432Z,0.93
2022-11-24T11:19:47.750Z,0.90
2022-11-24T11:22:13.626Z,1.20
2022-11-24T11:24:41.135Z,0.90
2022-11-24T11:27:27.426Z,1.20
2022-11-24T11:35:38.417Z,0.90
2022-11-24T11:38:06.904Z,0.90
2022-11-24T11:40:33.996Z,0.70
2022-11-24T11:43:03.564Z,0.83
2022-11-24T11:45:34.006Z,0.83
2022-11-24T11:48:01.146Z,0.90
2022-11-24T11:50:30.175Z,1.13
2022-11-24T11:53:10.796Z,0.90
2022-11-24T11:55:37.965Z,0.87
2022-11-24T11:58:17.172Z,5.93
2022-11-24T12:00:47.967Z,20.57
2022-11-24T12:03:32.246Z,3.90
2022-11-24T12:06:05.642Z,1.17
2022-11-24T12:09:03.200Z,1.40
2022-11-24T12:11:28.875Z,2.50
2022-11-24T12:14:22.120Z,3.43
2022-11-24T12:16:49.253Z,2.40
2022-11-24T12:19:28.644Z,3.00
2022-11-24T12:21:59.287Z,1.80
2022-11-24T12:24:49.017Z,1.47
2022-11-24T12:27:28.576Z,0.73
2022-11-24T12:30:01.774Z,0.80
2022-11-24T12:32:44.065Z,0.70
2022-11-24T12:35:11.170Z,0.93
2022-11-24T12:37:56.170Z,1.70
2022-11-24T12:41:18.135Z,0.67
2022-11-24T12:43:44.618Z,1.33
2022-11-24T12:46:17.428Z,0.70
2022-11-24T12:48:47.927Z,0.70
2022-11-24T12:51:26.835Z,0.60
2022-11-24T12:53:54.007Z,0.80
2022-11-24T12:56:23.624Z,1.00
2022-11-24T12:58:52.306Z,0.67
2022-11-24T13:01:22.730Z,0.60
2022-11-24T13:04:08.839Z,0.90
2022-11-24T13:06:43.128Z,0.87
2022-11-24T13:09:13.715Z,1.00
2022-11-24T13:11:41.857Z,0.60
2022-11-24T13:14:21.690Z,0.70
2022-11-24T13:17:13.549Z,0.60
2022-11-24T13:19:36.634Z,0.70
2022-11-24T13:22:03.854Z,1.20
2022-11-24T13:24:36.745Z,0.50
2022-11-24T13:27:16.741Z,1.00
2022-11-24T13:29:44.572Z,0.97
2022-11-24T13:32:14.543Z,1.00
2022-11-24T13:34:49.640Z,0.93
2022-11-24T13:37:32.056Z,2.80
2022-11-24T13:40:12.303Z,1.10
2022-11-24T13:43:09.052Z,1.57
2022-11-24T13:45:43.219Z,1.13
2022-11-24T13:48:20.107Z,0.80
2022-11-24T13:50:51.019Z,1.10
2022-11-24T13:53:37.019Z,0.80
2022-11-24T13:56:06.909Z,1.00
2022-11-24T13:58:37.992Z,1.37
2022-11-24T14:01:31.611Z,1.10
2022-11-24T14:06:55.177Z,1.07
2022-11-24T14:09:23.858Z,1.00
2022-11-24T14:12:17.813Z,1.57
2022-11-24T14:14:45.489Z,0.70
2022-11-24T14:17:19.878Z,0.60
2022-11-24T14:19:48.045Z,1.10
2022-11-24T14:22:16.969Z,1.57
2022-11-24T14:24:45.464Z,1.07
2022-11-24T14:27:16.461Z,0.80
2022-11-24T14:29:54.482Z,0.87
2022-11-24T14:32:22.132Z,0.90
2022-11-24T14:34:49.481Z,0.97
2022-11-24T14:37:16.679Z,1.40
2022-11-24T14:39:43.911Z,1.40
2022-11-24T14:42:18.119Z,1.93
2022-11-24T14:44:53.910Z,1.63
2022-11-24T14:47:27.265Z,1.50
2022-11-24T14:49:58.256Z,1.37
2022-11-24T14:52:25.518Z,1.70
2022-11-24T14:54:56.408Z,1.60
2022-11-24T14:57:24.460Z,0.93
2022-11-24T15:00:27.245Z,1.30
2022-11-24T15:03:08.415Z,1.30
2022-11-24T15:05:54.066Z,1.70
2022-11-24T15:08:21.155Z,1.80
2022-11-24T15:10:48.253Z,1.20
2022-11-24T15:13:24.399Z,2.87
2022-11-24T15:16:14.723Z,5.00
2022-11-24T15:18:42.883Z,4.50
2022-11-24T15:21:15.574Z,8.00
2022-11-24T15:23:53.300Z,2.53
2022-11-24T15:26:20.437Z,2.07
2022-11-24T15:28:47.767Z,4.50
2022-11-24T15:31:15.092Z,5.40
2022-11-24T15:33:42.303Z,1.90
2022-11-24T15:36:11.576Z,1.67
2022-11-24T15:38:38.709Z,2.50
2022-11-24T15:41:06.465Z,2.30
2022-11-24T15:43:34.831Z,2.50
2022-11-24T15:46:02.206Z,4.23
2022-11-24T15:48:29.442Z,4.67
2022-11-24T15:50:56.844Z,4.10
2022-11-24T15:53:33.226Z,3.00
2022-11-24T15:56:01.089Z,2.47
2022-11-24T15:58:28.201Z,2.60
2022-11-24T16:00:55.411Z,2.63
2022-11-24T16:06:12.342Z,2.83
2022-11-24T16:08:39.495Z,4.00
2022-11-24T16:11:06.663Z,3.30
2022-11-24T16:13:33.836Z,3.37
2022-11-24T16:16:01.105Z,2.73
2022-11-24T16:18:28.238Z,3.53
2022-11-24T16:20:55.390Z,3.17
2022-11-24T16:23:22.658Z,4.00
2022-11-24T16:25:49.820Z,5.77
2022-11-24T16:28:16.959Z,6.70
2022-11-24T16:30:48.269Z,5.80
2022-11-24T16:33:15.418Z,4.40
2022-11-24T16:35:42.568Z,5.27
2022-11-24T16:38:19.608Z,9.03
2022-11-24T16:40:53.096Z,9.70
2022-11-24T16:43:20.263Z,8.57
2022-11-24T16:45:47.528Z,9.60
2022-11-24T16:48:14.627Z,23.90
2022-11-24T16:50:41.979Z,20.30
2022-11-24T16:53:09.117Z,58.23
2022-11-24T16:55:36.188Z,30.93
2022-11-24T16:58:04.982Z,32.43
2022-11-24T17:00:32.133Z,35.70
2022-11-24T17:02:59.306Z,59.47
2022-11-24T17:05:26.391Z,28.00
2022-11-24T17:07:53.558Z,89.17
2022-11-24T17:10:20.849Z,54.97
2022-11-24T17:12:49.692Z,34.23
2022-11-24T17:15:32.535Z,31.80
2022-11-24T17:18:23.378Z,21.13
2022-11-24T17:20:52.065Z,34.57
2022-11-24T17:23:20.999Z,25.13
2022-11-24T17:25:50.288Z,14.67
2022-11-24T17:28:17.503Z,11.83
2022-11-24T17:30:44.598Z,12.13
2022-11-24T17:33:11.781Z,16.40
2022-11-24T17:35:39.018Z,18.20
2022-11-24T17:38:06.351Z,18.40
2022-11-24T17:40:33.459Z,12.90
2022-11-24T17:43:00.828Z,16.00
2022-11-24T17:45:28.548Z,22.07
2022-11-24T17:47:56.236Z,31.30
2022-11-24T17:50:25.973Z,28.00
2022-11-24T17:52:53.789Z,20.23
2022-11-24T17:55:20.951Z,14.53
2022-11-24T17:57:48.228Z,11.07
2022-11-24T18:00:15.596Z,8.77
2022-11-24T18:02:42.747Z,7.17
2022-11-24T18:05:09.992Z,8.43
2022-11-24T18:07:37.261Z,8.03
2022-11-24T18:10:04.613Z,9.83
2022-11-24T18:12:31.752Z,9.10
2022-11-24T18:14:59.082Z,9.00
2022-11-24T18:17:26.249Z,8.53
2022-11-24T18:19:53.318Z,7.80
2022-11-24T18:22:36.659Z,8.90
2022-11-24T18:25:07.704Z,9.67
2022-11-24T18:27:34.795Z,11.80
2022-11-24T18:30:01.895Z,11.17
2022-11-24T18:32:29.031Z,10.33
2022-11-24T18:34:56.107Z,10.60
2022-11-24T18:37:23.175Z,13.10
2022-11-24T18:39:50.377Z,15.50
2022-11-24T18:42:17.797Z,14.97
2022-11-24T18:44:48.610Z,15.00
2022-11-24T18:47:18.262Z,16.10
2022-11-24T18:49:45.383Z,15.50
2022-11-24T18:52:12.547Z,13.37
2022-11-24T18:54:39.703Z,12.70
2022-11-24T18:57:06.769Z,13.93
2022-11-24T18:59:33.954Z,13.60
2022-11-24T19:02:01.141Z,15.00
2022-11-24T19:04:28.284Z,14.67
2022-11-24T19:06:55.434Z,13.40
2022-11-24T19:09:22.905Z,16.53
2022-11-24T19:11:50.005Z,18.13
2022-11-24T19:14:17.818Z,23.83
2022-11-24T19:16:45.152Z,16.80
2022-11-24T19:19:12.466Z,18.43
2022-11-24T19:21:39.857Z,17.90
2022-11-24T19:24:07.281Z,17.20
2022-11-24T19:26:37.565Z,15.37
2022-11-24T19:29:04.751Z,17.60
2022-11-24T19:31:32.046Z,14.10
2022-11-24T19:33:59.904Z,15.10
2022-11-24T19:36:27.086Z,13.30
2022-11-24T19:38:54.826Z,12.30
2022-11-24T19:41:23.277Z,15.13
2022-11-24T19:43:53.079Z,12.70
2022-11-24T19:46:20.206Z,12.10
2022-11-24T19:48:49.977Z,12.87
2022-11-24T19:51:18.544Z,13.13
2022-11-24T19:53:45.788Z,15.83
2022-11-24T19:56:13.710Z,17.30
2022-11-24T19:58:40.991Z,16.57
2022-11-24T20:01:12.128Z,14.57
2022-11-24T20:03:39.357Z,14.97
2022-11-24T20:06:06.706Z,18.33
2022-11-24T20:08:34.192Z,25.63
2022-11-24T20:11:04.877Z,21.87
2022-11-24T20:13:32.149Z,19.60
2022-11-24T20:16:05.577Z,17.03
2022-11-24T20:18:36.314Z,14.57
2022-11-24T20:21:06.641Z,13.20
2022-11-24T20:23:33.799Z,12.10
2022-11-24T20:26:07.949Z,10.57
2022-11-24T20:28:35.085Z,10.80
2022-11-24T20:31:06.225Z,10.50
2022-11-24T20:33:33.326Z,15.17
2022-11-24T20:36:07.182Z,13.50
2022-11-24T20:38:37.357Z,10.50
2022-11-24T20:41:09.355Z,10.13
2022-11-24T20:43:36.926Z,10.10
2022-11-24T20:46:05.063Z,10.23
2022-11-24T20:48:32.322Z,9.33
2022-11-24T20:51:09.500Z,9.50
2022-11-24T20:53:36.668Z,10.40
2022-11-24T20:56:13.820Z,8.60
2022-11-24T20:58:40.946Z,9.73
2022-11-24T21:01:09.185Z,10.10
2022-11-24T21:03:42.585Z,9.37
2022-11-24T21:06:10.467Z,8.90
2022-11-24T21:08:37.677Z,10.23
2022-11-24T21:11:04.858Z,9.67
2022-11-24T21:13:35.246Z,9.70
2022-11-24T21:16:11.557Z,9.40
2022-11-24T21:18:38.700Z,9.93
2022-11-24T21:21:05.864Z,8.77
2022-11-24T21:23:32.959Z,9.07
2022-11-24T21:26:05.220Z,9.33
2022-11-24T21:28:32.758Z,8.53
2022-11-24T21:31:19.281Z,7.90
2022-11-24T21:33:50.293Z,7.30
2022-11-24T21:36:18.357Z,8.70
2022-11-24T21:38:45.452Z,8.60
2022-11-24T21:41:14.035Z,10.00
2022-11-24T21:43:41.226Z,8.67
2022-11-24T21:46:08.991Z,7.73
2022-11-24T21:48:36.409Z,7.80
2022-11-24T21:51:04.460Z,8.40
2022-11-24T21:53:32.537Z,9.63
2022-11-24T21:56:00.906Z,9.30
2022-11-24T21:58:30.479Z,8.97
2022-11-24T22:01:04.559Z,9.60
2022-11-24T22:03:31.791Z,8.47
2022-11-24T22:06:01.233Z,8.40
2022-11-24T22:08:28.873Z,7.73
2022-11-24T22:11:01.001Z,9.23
2022-11-24T22:13:28.154Z,9.73
2022-11-24T22:16:21.640Z,8.90
2022-11-24T22:18:48.951Z,9.30
2022-11-24T22:21:16.911Z,9.27
2022-11-24T22:23:44.126Z,9.70
2022-11-24T22:26:14.769Z,9.33
2022-11-24T22:28:42.066Z,10.27
2022-11-24T22:31:13.551Z,9.80
2022-11-24T22:33:40.794Z,11.37
2022-11-24T22:36:08.289Z,11.20
2022-11-24T22:38:35.539Z,11.10
2022-11-24T22:41:03.358Z,10.40
2022-11-24T22:43:33.807Z,10.90
2022-11-24T22:46:07.698Z,11.80
2022-11-24T22:48:35.037Z,11.37
2022-11-24T22:51:03.001Z,11.77
2022-11-24T22:53:30.166Z,11.30
2022-11-24T22:55:57.314Z,11.83
2022-11-24T22:58:24.392Z,10.27
2022-11-24T23:00:51.532Z,9.83
2022-11-24T23:03:18.781Z,11.30
2022-11-24T23:05:46.012Z,9.87
2022-11-24T23:08:13.123Z,11.03
2022-11-24T23:10:40.323Z,10.30
2022-11-24T23:13:10.420Z,10.33
2022-11-24T23:15:37.527Z,10.90
2022-11-24T23:18:04.702Z,9.47
2022-11-24T23:20:31.845Z,9.53
2022-11-24T23:22:59.021Z,12.30
2022-11-24T23:25:26.267Z,15.53
2022-11-24T23:27:53.494Z,14.93
2022-11-24T23:30:20.602Z,11.20
2022-11-24T23:32:47.764Z,11.10
2022-11-24T23:35:14.893Z,10.23
2022-11-24T23:38:05.884Z,9.80
2022-11-24T23:40:29.080Z,11.63
2022-11-24T23:42:56.206Z,12.03
2022-11-24T23:45:23.344Z,10.60
2022-11-24T23:47:50.498Z,10.17
2022-11-24T23:50:17.644Z,10.20
2022-11-24T23:52:44.810Z,10.47
2022-11-24T23:55:11.943Z,10.00
2022-11-24T23:57:39.044Z,9.83
